Time;durP1;ratioP1;P1;durP2;ratioP2;P2;SDS_P1;SDS_P2;PMS_P1;PMS_P2;Temp;Humidity;BMP_temperature;BMP_pressure;BME280_temperature;BME280_humidity;BME280_pressure;Samples;Min_cycle;Max_cycle;Signal;HPM_P1;HPM_P2
2023/01/06 00:01:30;;;;;;;0.80;0.68;;;9.50;99.90;;;;;;4973839;28;20050;-90
2023/01/06 00:04:04;;;;;;;1.30;0.65;;;9.50;99.90;;;;;;4960579;28;20445;-90
2023/01/06 00:06:32;;;;;;;0.60;0.55;;;9.50;99.90;;;;;;4923745;29;20044;-90
2023/01/06 00:09:03;;;;;;;2.13;0.85;;;9.50;99.90;;;;;;4923961;29;20572;-90
2023/01/06 00:11:41;;;;;;;0.98;0.85;;;9.00;99.90;;;;;;4971934;28;20469;-90
2023/01/06 00:14:07;;;;;;;1.33;0.93;;;9.60;99.90;;;;;;4940803;29;20051;-91
2023/01/06 00:16:36;;;;;;;1.70;0.93;;;9.60;99.90;;;;;;4939170;29;20149;-90
2023/01/06 00:19:07;;;;;;;1.15;0.77;;;9.60;99.90;;;;;;4939205;29;20043;-90
2023/01/06 00:21:32;;;;;;;0.88;0.47;;;9.60;99.90;;;;;;4923719;29;20058;-90
2023/01/06 00:24:01;;;;;;;0.47;0.47;;;9.70;99.90;;;;;;4938548;29;20059;-91
2023/01/06 00:26:27;;;;;;;1.20;0.88;;;9.60;99.90;;;;;;4939456;29;20083;-91
2023/01/06 00:28:54;;;;;;;0.57;0.43;;;9.60;99.90;;;;;;4955655;28;20081;-90
2023/01/06 00:31:20;;;;;;;0.85;0.65;;;9.60;99.90;;;;;;4942327;29;20055;-90
2023/01/06 00:33:48;;;;;;;0.28;0.28;;;9.60;99.90;;;;;;4938996;29;20090;-90
2023/01/06 00:36:14;;;;;;;0.77;0.47;;;9.60;99.90;;;;;;4938897;29;20050;-89
2023/01/06 00:38:41;;;;;;;0.47;0.27;;;9.60;99.90;;;;;;4955205;29;20055;-90
2023/01/06 00:44:00;;;;;;;1.55;0.75;;;9.40;99.90;;;;;;4955147;29;20047;-90
2023/01/06 00:46:29;;;;;;;1.52;0.70;;;10.30;99.90;;;;;;4939711;28;20067;-91
2023/01/06 00:48:57;;;;;;;0.63;0.50;;;9.70;99.90;;;;;;4958188;28;20038;-91
2023/01/06 00:51:28;;;;;;;0.50;0.50;;;9.70;99.90;;;;;;4973978;28;20583;-90
2023/01/06 00:54:01;;;;;;;2.05;0.77;;;9.70;99.90;;;;;;4958323;28;20050;-90
2023/01/06 00:56:30;;;;;;;0.60;0.40;;;9.70;99.90;;;;;;4958364;28;20047;-90
2023/01/06 00:59:03;;;;;;;1.20;0.80;;;9.80;99.90;;;;;;4926038;29;20047;-90
2023/01/06 01:01:29;;;;;;;0.88;0.70;;;9.70;99.90;;;;;;4921744;28;20092;-90
2023/01/06 01:03:57;;;;;;;1.20;0.50;;;9.80;99.90;;;;;;4942915;29;20512;-90
2023/01/06 01:06:25;;;;;;;0.75;0.40;;;9.80;99.90;;;;;;4948967;28;20047;-90
2023/01/06 01:08:58;;;;;;;1.92;0.70;;;9.70;99.90;;;;;;4941754;28;20053;-90
2023/01/06 01:14:10;;;;;;;0.80;0.60;;;8.70;99.90;;;;;;4961711;28;20047;-90
2023/01/06 01:16:36;;;;;;;0.35;0.35;;;9.80;99.90;;;;;;4952724;29;20186;-90
2023/01/06 01:19:05;;;;;;;1.40;0.50;;;9.70;99.90;;;;;;4953972;29;20134;-92
2023/01/06 01:21:33;;;;;;;1.10;1.02;;;9.70;99.90;;;;;;4952227;29;20062;-90
2023/01/06 01:24:06;;;;;;;0.63;0.63;;;9.70;99.90;;;;;;4954214;29;20065;-90
2023/01/06 01:26:32;;;;;;;0.40;0.30;;;9.60;99.90;;;;;;4954656;29;20047;-90
2023/01/06 01:28:58;;;;;;;0.57;0.20;;;9.60;99.90;;;;;;4953761;29;20162;-90
2023/01/06 01:31:24;;;;;;;0.65;0.47;;;9.70;99.90;;;;;;4953758;28;20048;-90
2023/01/06 01:33:58;;;;;;;1.13;0.40;;;9.60;99.90;;;;;;4932541;28;20086;-91
2023/01/06 01:36:29;;;;;;;0.63;0.45;;;9.60;99.90;;;;;;4957046;28;20057;-90
2023/01/06 01:38:56;;;;;;;0.70;0.32;;;9.70;99.90;;;;;;4957132;28;20489;-90
2023/01/06 01:41:25;;;;;;;0.40;0.40;;;9.70;99.90;;;;;;4972867;28;20046;-91
2023/01/06 01:44:00;;;;;;;1.02;0.60;;;9.70;99.90;;;;;;4957229;28;20089;-90
2023/01/06 01:46:39;;;;;;;1.05;0.98;;;9.70;99.90;;;;;;4956918;28;20047;-90
2023/01/06 01:49:31;;;;;;;0.60;0.38;;;9.80;99.90;;;;;;4957425;28;20111;-93
2023/01/06 01:52:07;;;;;;;0.38;0.38;;;9.60;99.90;;;;;;4953867;28;20055;-91
2023/01/06 01:54:36;;;;;;;1.10;0.82;;;9.60;99.90;;;;;;4937843;29;20047;-91
2023/01/06 01:57:17;;;;;;;0.85;0.75;;;9.60;99.90;;;;;;4953868;29;20050;-90
2023/01/06 01:59:49;;;;;;;1.65;0.93;;;9.60;99.90;;;;;;4938474;29;20075;-91
2023/01/06 02:02:18;;;;;;;1.17;0.65;;;8.80;99.90;;;;;;4937248;29;20138;-91
2023/01/06 02:04:54;;;;;;;0.28;0.28;;;9.60;99.90;;;;;;4938437;29;20074;-90
2023/01/06 02:07:23;;;;;;;1.85;0.30;;;9.50;99.90;;;;;;4937797;29;20059;-91
2023/01/06 02:10:30;;;;;;;0.63;0.50;;;9.60;99.90;;;;;;4944810;28;20049;-91
2023/01/06 02:13:00;;;;;;;1.30;0.28;;;9.60;99.90;;;;;;4914893;29;20384;-91
2023/01/06 02:15:43;;;;;;;0.52;0.47;;;9.60;99.90;;;;;;4879510;29;20060;-91
2023/01/06 02:18:45;;;;;;;1.60;0.80;;;9.60;99.90;;;;;;4937806;29;20051;-92
2023/01/06 02:21:33;;;;;;;1.10;0.70;;;9.40;99.90;;;;;;4962045;28;20043;-93
2023/01/06 02:24:34;;;;;;;1.00;0.73;;;9.70;99.90;;;;;;4949950;28;20055;-91
2023/01/06 02:27:22;;;;;;;1.27;0.47;;;9.70;99.90;;;;;;4971936;28;20059;-92
2023/01/06 02:30:23;;;;;;;0.63;0.30;;;9.60;99.90;;;;;;4901029;29;20067;-90
2023/01/06 02:33:03;;;;;;;0.82;0.20;;;9.70;99.90;;;;;;4895875;29;20329;-90
2023/01/06 02:35:35;;;;;;;1.77;0.40;;;9.60;99.90;;;;;;4937152;29;20501;-90
2023/01/06 02:38:12;;;;;;;0.60;0.47;;;9.60;99.90;;;;;;4937803;29;20051;-90
2023/01/06 02:41:08;;;;;;;1.10;0.45;;;9.60;99.90;;;;;;4938191;29;20050;-90
2023/01/06 02:44:07;;;;;;;0.35;0.35;;;9.60;99.90;;;;;;4970300;28;20039;-90
2023/01/06 02:47:08;;;;;;;0.55;0.40;;;9.60;99.90;;;;;;4941000;29;20497;-90
2023/01/06 02:49:45;;;;;;;0.88;0.40;;;9.20;99.90;;;;;;4957121;29;20043;-91
2023/01/06 02:52:44;;;;;;;0.45;0.32;;;9.60;99.90;;;;;;4953657;28;20053;-90
2023/01/06 02:55:33;;;;;;;0.75;0.65;;;9.50;99.90;;;;;;4909521;29;20530;-91
2023/01/06 02:58:16;;;;;;;1.13;0.60;;;9.60;99.90;;;;;;4941533;29;20095;-90
2023/01/06 03:00:51;;;;;;;0.50;0.30;;;9.60;99.90;;;;;;4941166;29;20047;-90
2023/01/06 03:03:22;;;;;;;0.25;0.25;;;9.60;99.90;;;;;;4940832;29;20051;-91
2023/01/06 03:05:56;;;;;;;0.75;0.47;;;9.60;99.90;;;;;;4957593;28;20047;-90
2023/01/06 03:08:29;;;;;;;0.10;0.10;;;9.70;99.90;;;;;;4956714;29;20401;-91
2023/01/06 03:10:58;;;;;;;0.30;0.30;;;9.60;99.90;;;;;;4972315;28;20732;-90
2023/01/06 03:13:39;;;;;;;0.20;0.20;;;9.60;99.90;;;;;;4955903;29;20556;-91
2023/01/06 03:16:08;;;;;;;2.05;0.57;;;9.70;99.90;;;;;;4956635;29;20062;-91
2023/01/06 03:18:36;;;;;;;2.65;1.17;;;9.60;99.90;;;;;;4909522;29;20125;-91
2023/01/06 03:21:07;;;;;;;0.93;0.47;;;9.70;99.90;;;;;;4959837;28;20133;-91
2023/01/06 03:23:34;;;;;;;0.52;0.52;;;9.60;99.90;;;;;;4940431;29;20149;-91
2023/01/06 03:25:59;;;;;;;0.50;0.50;;;9.30;99.90;;;;;;4940495;29;20063;-91
2023/01/06 03:28:28;;;;;;;0.40;0.40;;;9.60;99.90;;;;;;4940560;29;20047;-91
2023/01/06 03:31:15;;;;;;;0.50;0.50;;;9.60;99.90;;;;;;4940906;29;20039;-91
2023/01/06 03:34:19;;;;;;;0.95;0.47;;;9.60;99.90;;;;;;4940465;29;20051;-91
2023/01/06 03:36:54;;;;;;;1.58;0.65;;;9.60;99.90;;;;;;4927696;28;20440;-90
2023/01/06 03:39:49;;;;;;;0.30;0.30;;;9.60;99.90;;;;;;4975532;28;20461;-93
2023/01/06 03:45:11;;;;;;;0.90;0.40;;;9.60;99.90;;;;;;4975919;28;20556;-91
2023/01/06 03:47:47;;;;;;;0.50;0.50;;;9.60;99.90;;;;;;4959124;28;20133;-91
2023/01/06 03:50:27;;;;;;;0.17;0.17;;;9.60;99.90;;;;;;4960084;28;20070;-92
2023/01/06 03:53:16;;;;;;;1.65;0.70;;;9.60;99.90;;;;;;4951175;29;20047;-91
2023/01/06 03:55:47;;;;;;;1.05;0.65;;;9.60;99.90;;;;;;4956739;28;20050;-91
2023/01/06 03:58:17;;;;;;;1.17;0.55;;;9.60;99.90;;;;;;4959676;28;20061;-90
2023/01/06 04:00:46;;;;;;;0.47;0.40;;;9.70;99.90;;;;;;4958723;28;20102;-91
2023/01/06 04:03:13;;;;;;;1.20;0.65;;;9.60;99.90;;;;;;4943519;28;20058;-91
2023/01/06 04:05:46;;;;;;;0.63;0.63;;;9.60;99.90;;;;;;4958882;28;20166;-90
2023/01/06 04:08:14;;;;;;;0.40;0.40;;;9.60;99.90;;;;;;4959321;28;20051;-91
2023/01/06 04:10:42;;;;;;;0.55;0.40;;;9.70;99.90;;;;;;4958420;28;20058;-91
2023/01/06 04:13:11;;;;;;;1.83;0.60;;;8.60;99.90;;;;;;4959480;28;20047;-91
2023/01/06 04:15:36;;;;;;;0.33;0.30;;;9.60;99.90;;;;;;4958589;28;20049;-91
2023/01/06 04:18:02;;;;;;;0.60;0.53;;;10.70;99.90;;;;;;4974871;28;20130;-91
2023/01/06 04:20:29;;;;;;;0.50;0.50;;;9.60;99.90;;;;;;4958475;28;20081;-91
2023/01/06 04:23:01;;;;;;;1.08;0.55;;;9.50;99.90;;;;;;4958534;28;20050;-91
2023/01/06 04:25:44;;;;;;;;;;;;;;;;;;;;;
2023/01/06 04:28:12;;;;;;;0.20;0.20;;;9.70;99.90;;;;;;4974522;28;20058;-91
2023/01/06 04:30:38;;;;;;;0.40;0.40;;;9.50;99.90;;;;;;4942705;28;20129;-91
2023/01/06 04:33:06;;;;;;;0.67;0.33;;;9.50;99.90;;;;;;4958861;28;20090;-91
2023/01/06 04:35:34;;;;;;;0.38;0.38;;;9.50;99.90;;;;;;4958154;28;20046;-91
2023/01/06 04:38:04;;;;;;;0.43;0.30;;;9.50;99.90;;;;;;4958882;28;20053;-91
2023/01/06 04:40:32;;;;;;;0.47;0.22;;;9.50;99.90;;;;;;4958195;28;20452;-92
2023/01/06 04:43:04;;;;;;;0.70;0.70;;;9.50;99.90;;;;;;4958395;28;20057;-91
2023/01/06 04:45:32;;;;;;;0.70;0.17;;;9.50;99.90;;;;;;4957289;28;20090;-91
2023/01/06 04:48:00;;;;;;;0.82;0.55;;;9.60;99.90;;;;;;4958573;28;20046;-91
2023/01/06 04:50:29;;;;;;;0.38;0.25;;;9.60;99.90;;;;;;4958412;28;20097;-93
2023/01/06 04:52:58;;;;;;;0.30;0.30;;;9.50;99.90;;;;;;4956092;28;20145;-92
2023/01/06 04:55:24;;;;;;;0.65;0.43;;;8.70;99.90;;;;;;4942671;28;20051;-91
2023/01/06 04:57:52;;;;;;;0.15;0.13;;;9.50;99.90;;;;;;4926309;29;20089;-91
2023/01/06 05:00:18;;;;;;;0.47;0.30;;;9.50;99.90;;;;;;4952896;28;20094;-91
2023/01/06 05:02:47;;;;;;;0.50;0.40;;;9.60;99.90;;;;;;4934007;28;20113;-91
2023/01/06 05:05:16;;;;;;;0.45;0.45;;;9.50;99.90;;;;;;4958217;28;20114;-91
2023/01/06 05:07:46;;;;;;;0.50;0.30;;;9.40;99.90;;;;;;4973026;28;20511;-91
2023/01/06 05:10:12;;;;;;;0.75;0.32;;;9.60;99.90;;;;;;4942472;28;20050;-91
2023/01/06 05:12:41;;;;;;;0.40;0.40;;;9.40;99.90;;;;;;4957824;28;20054;-91
2023/01/06 05:15:12;;;;;;;0.38;0.38;;;9.40;99.90;;;;;;4957717;28;20066;-91
2023/01/06 05:17:38;;;;;;;1.35;0.65;;;9.40;99.90;;;;;;4941959;28;20511;-91
2023/01/06 05:20:04;;;;;;;0.67;0.67;;;9.40;99.90;;;;;;4928991;29;20075;-91
2023/01/06 05:22:30;;;;;;;0.95;0.85;;;9.40;99.90;;;;;;4938240;29;20051;-91
2023/01/06 05:24:58;;;;;;;0.40;0.40;;;9.40;99.90;;;;;;4948804;28;20074;-91
2023/01/06 05:27:28;;;;;;;0.32;0.32;;;9.40;99.90;;;;;;4957865;28;20038;-91
2023/01/06 05:29:56;;;;;;;0.70;0.63;;;9.50;99.90;;;;;;4941664;28;20039;-91
2023/01/06 05:32:22;;;;;;;0.75;0.43;;;9.50;99.90;;;;;;4956803;28;20054;-92
2023/01/06 05:34:58;;;;;;;;;;;;;;;;;;;;;
2023/01/06 05:37:24;;;;;;;0.47;0.45;;;9.40;99.90;;;;;;4972548;28;20053;-91
2023/01/06 05:39:55;;;;;;;0.40;0.40;;;9.50;99.90;;;;;;4972531;28;20051;-91
2023/01/06 05:42:23;;;;;;;0.28;0.28;;;9.60;99.90;;;;;;4957431;28;20096;-91
2023/01/06 05:44:54;;;;;;;0.60;0.30;;;9.50;99.90;;;;;;4972207;28;20497;-91
2023/01/06 05:47:23;;;;;;;0.50;0.50;;;9.50;99.90;;;;;;4925662;28;20127;-91
2023/01/06 05:49:48;;;;;;;0.28;0.25;;;9.10;99.90;;;;;;4941015;28;20137;-93
2023/01/06 05:52:14;;;;;;;0.20;0.17;;;9.60;99.90;;;;;;4956945;28;20137;-91
2023/01/06 05:54:43;;;;;;;0.53;0.53;;;9.50;99.90;;;;;;4940247;28;20039;-91
2023/01/06 05:57:11;;;;;;;0.25;0.20;;;9.50;99.90;;;;;;4955659;28;20049;-91
2023/01/06 05:59:37;;;;;;;0.57;0.30;;;9.50;99.90;;;;;;4956432;28;20042;-92
2023/01/06 06:02:08;;;;;;;0.63;0.30;;;9.60;99.90;;;;;;4972746;28;20047;-91
2023/01/06 06:04:34;;;;;;;0.30;0.30;;;9.90;99.90;;;;;;4953349;29;20087;-92
2023/01/06 06:07:02;;;;;;;1.70;0.37;;;9.40;99.90;;;;;;4937579;29;20055;-90
2023/01/06 06:09:35;;;;;;;0.35;0.30;;;9.40;99.90;;;;;;4953795;28;20150;-93
2023/01/06 06:12:04;;;;;;;0.52;0.40;;;9.40;99.90;;;;;;4939815;29;20048;-92
2023/01/06 06:14:33;;;;;;;0.52;0.40;;;8.80;99.90;;;;;;4923947;29;20097;-90
2023/01/06 06:17:04;;;;;;;0.57;0.30;;;9.50;99.90;;;;;;4971571;28;20043;-89
2023/01/06 06:19:32;;;;;;;0.47;0.47;;;9.40;99.90;;;;;;4942284;28;20051;-90
2023/01/06 06:22:00;;;;;;;0.60;0.38;;;9.40;99.90;;;;;;4925621;29;20047;-90
2023/01/06 06:24:26;;;;;;;1.25;0.38;;;9.40;99.90;;;;;;4949056;28;20117;-90
2023/01/06 06:26:54;;;;;;;1.00;0.70;;;9.50;99.90;;;;;;4951639;28;20471;-92
2023/01/06 06:29:27;;;;;;;0.47;0.38;;;9.40;99.90;;;;;;4941357;29;20670;-89
2023/01/06 06:31:55;;;;;;;0.90;0.32;;;9.30;99.90;;;;;;4926526;29;20106;-90
2023/01/06 06:34:24;;;;;;;0.93;0.43;;;9.30;99.90;;;;;;4941222;29;20055;-89
2023/01/06 06:36:50;;;;;;;1.10;0.40;;;9.30;99.90;;;;;;4925490;29;20059;-89
2023/01/06 06:39:19;;;;;;;0.30;0.10;;;8.50;99.90;;;;;;4948897;29;20094;-89
2023/01/06 06:41:54;;;;;;;0.30;0.30;;;9.30;99.90;;;;;;4940980;29;20051;-90
2023/01/06 06:44:20;;;;;;;0.70;0.30;;;9.40;99.90;;;;;;4942186;29;20051;-91
2023/01/06 06:46:48;;;;;;;0.50;0.47;;;9.30;99.90;;;;;;4925329;29;20049;-91
2023/01/06 06:49:13;;;;;;;1.60;0.45;;;9.30;99.90;;;;;;4957793;29;20051;-92
2023/01/06 06:51:41;;;;;;;0.77;0.30;;;9.30;99.90;;;;;;4941625;29;20057;-92
2023/01/06 06:54:15;;;;;;;0.95;0.77;;;9.30;99.90;;;;;;4948252;28;20300;-91
2023/01/06 06:56:43;;;;;;;0.85;0.80;;;9.40;99.90;;;;;;4959938;28;20101;-90
2023/01/06 06:59:09;;;;;;;1.25;0.35;;;9.20;99.90;;;;;;4944526;28;20042;-89
2023/01/06 07:01:36;;;;;;;0.80;0.70;;;9.20;99.90;;;;;;4959478;28;20047;-90
2023/01/06 07:04:05;;;;;;;0.32;0.20;;;9.20;99.90;;;;;;4958811;28;20342;-90
2023/01/06 07:06:31;;;;;;;0.30;0.30;;;9.20;99.90;;;;;;4961952;28;20046;-90
2023/01/06 07:08:59;;;;;;;0.65;0.40;;;9.10;99.90;;;;;;4944000;28;20089;-90
2023/01/06 07:11:27;;;;;;;1.35;0.52;;;9.10;99.90;;;;;;4960159;28;20114;-90
2023/01/06 07:13:55;;;;;;;0.22;0.20;;;8.90;99.90;;;;;;4944914;28;20141;-89
2023/01/06 07:16:25;;;;;;;0.35;0.35;;;9.10;99.90;;;;;;4944626;28;20057;-89
2023/01/06 07:18:54;;;;;;;0.85;0.77;;;9.10;99.90;;;;;;4964419;28;20061;-89
2023/01/06 07:21:22;;;;;;;1.25;0.60;;;9.20;99.90;;;;;;4936559;28;20080;-90
2023/01/06 07:23:47;;;;;;;0.35;0.35;;;9.00;99.90;;;;;;4953019;28;20133;-89
2023/01/06 07:26:14;;;;;;;0.50;0.40;;;9.10;99.90;;;;;;4968159;28;20126;-89
2023/01/06 07:28:45;;;;;;;0.25;0.25;;;9.10;99.90;;;;;;4957397;29;20055;-90
2023/01/06 07:31:22;;;;;;;0.75;0.60;;;9.10;99.90;;;;;;4932884;28;20077;-91
2023/01/06 07:33:51;;;;;;;0.20;0.20;;;9.20;99.90;;;;;;4943889;28;20058;-91
2023/01/06 07:36:35;;;;;;;0.28;0.28;;;9.20;99.90;;;;;;4960102;28;20070;-93
2023/01/06 07:39:03;;;;;;;0.10;0.10;;;9.20;99.90;;;;;;4943767;28;20057;-91
2023/01/06 07:41:31;;;;;;;0.10;0.10;;;9.10;99.90;;;;;;4974662;28;20053;-91
2023/01/06 07:43:59;;;;;;;0.30;0.20;;;9.20;99.90;;;;;;4959785;28;20108;-92
2023/01/06 07:46:25;;;;;;;0.77;0.55;;;9.20;99.90;;;;;;4959671;28;20113;-91
2023/01/06 07:48:56;;;;;;;0.38;0.38;;;9.20;99.90;;;;;;4959430;28;20137;-90
2023/01/06 07:51:22;;;;;;;0.10;0.10;;;9.10;99.90;;;;;;4959683;28;20074;-91
2023/01/06 07:53:51;;;;;;;0.73;0.20;;;9.10;99.90;;;;;;4959584;28;20046;-91
2023/01/06 07:56:16;;;;;;;0.10;0.10;;;9.10;99.90;;;;;;4960250;28;20485;-90
2023/01/06 07:58:59;;;;;;;0.83;0.30;;;9.20;99.90;;;;;;4959809;28;20051;-90
2023/01/06 08:01:25;;;;;;;0.30;0.20;;;9.20;99.90;;;;;;4945125;28;20043;-90
2023/01/06 08:03:53;;;;;;;0.10;0.10;;;9.20;99.90;;;;;;4960215;28;20105;-92
2023/01/06 08:06:24;;;;;;;1.95;0.47;;;9.20;99.90;;;;;;4960357;28;20046;-90
2023/01/06 08:08:55;;;;;;;0.15;0.13;;;9.10;99.90;;;;;;4975938;28;20050;-91
2023/01/06 08:11:33;;;;;;;;;;;;;;;;;;;;;
2023/01/06 08:14:01;;;;;;;0.25;0.25;;;9.30;99.90;;;;;;4974992;28;20515;-90
2023/01/06 08:16:39;;;;;;;0.00;0.00;;;9.20;99.90;;;;;;4959440;28;20090;-91
2023/01/06 08:19:05;;;;;;;0.00;0.00;;;8.70;99.90;;;;;;4959588;28;20397;-90
2023/01/06 08:21:31;;;;;;;0.28;0.10;;;9.00;99.90;;;;;;4960406;28;20042;-91
2023/01/06 08:24:03;;;;;;;0.00;0.00;;;9.00;99.90;;;;;;4960819;28;20085;-90
2023/01/06 08:26:34;;;;;;;0.20;0.20;;;8.90;99.90;;;;;;4960541;28;20058;-91
2023/01/06 08:29:06;;;;;;;0.22;0.10;;;8.80;99.90;;;;;;4960069;28;20051;-90
2023/01/06 08:31:40;;;;;;;0.10;0.10;;;8.90;99.90;;;;;;4959534;28;20451;-91
2023/01/06 08:34:06;;;;;;;0.20;0.20;;;8.70;99.90;;;;;;4958719;28;20069;-91
2023/01/06 08:36:34;;;;;;;0.10;0.10;;;8.90;99.90;;;;;;4959126;28;20499;-90
2023/01/06 08:39:00;;;;;;;0.30;0.10;;;9.10;99.90;;;;;;4974633;28;20141;-91
2023/01/06 08:41:31;;;;;;;0.13;0.10;;;9.70;99.90;;;;;;4958361;28;20141;-91
2023/01/06 08:43:57;;;;;;;0.10;0.10;;;9.80;99.90;;;;;;4958762;28;20051;-91
2023/01/06 08:46:25;;;;;;;0.60;0.20;;;10.00;99.90;;;;;;4959028;28;20050;-91
2023/01/06 08:48:57;;;;;;;0.05;0.05;;;10.20;99.90;;;;;;4958931;28;20054;-91
2023/01/06 08:51:27;;;;;;;0.00;0.00;;;10.00;99.90;;;;;;4959093;28;20105;-90
2023/01/06 08:53:55;;;;;;;0.00;0.00;;;9.70;99.90;;;;;;4943840;28;20057;-91
2023/01/06 08:56:30;;;;;;;0.00;0.00;;;9.50;99.90;;;;;;4958600;28;20485;-91
2023/01/06 08:59:03;;;;;;;0.00;0.00;;;9.40;99.90;;;;;;4974661;28;20053;-91
2023/01/06 09:01:37;;;;;;;0.00;0.00;;;9.20;99.90;;;;;;4959144;28;20054;-91
2023/01/06 09:04:08;;;;;;;0.00;0.00;;;9.30;99.90;;;;;;4958771;28;20060;-91
2023/01/06 09:06:34;;;;;;;0.00;0.00;;;9.40;99.90;;;;;;4958831;28;20417;-91
2023/01/06 09:09:10;;;;;;;6.15;0.25;;;9.40;99.90;;;;;;4958401;28;20061;-91
2023/01/06 09:11:41;;;;;;;0.00;0.00;;;9.30;99.90;;;;;;4958885;28;20042;-91
2023/01/06 09:14:10;;;;;;;0.00;0.00;;;9.40;99.90;;;;;;4958351;28;20114;-91
2023/01/06 09:16:48;;;;;;;0.10;0.10;;;10.20;99.90;;;;;;4958464;28;20042;-91
2023/01/06 09:19:16;;;;;;;0.00;0.00;;;9.70;99.90;;;;;;4943195;28;20499;-91
2023/01/06 09:21:44;;;;;;;0.00;0.00;;;9.80;99.90;;;;;;4957598;28;20093;-91
2023/01/06 09:24:16;;;;;;;0.10;0.10;;;9.90;99.90;;;;;;4941919;28;20405;-91
2023/01/06 09:26:45;;;;;;;0.10;0.10;;;9.90;99.90;;;;;;4974016;28;20058;-91
2023/01/06 09:29:11;;;;;;;0.00;0.00;;;9.80;99.90;;;;;;4942410;28;20404;-91
2023/01/06 09:31:44;;;;;;;0.00;0.00;;;9.90;99.90;;;;;;4942410;28;20046;-91
2023/01/06 09:34:10;;;;;;;0.00;0.00;;;8.90;99.90;;;;;;4957837;28;20093;-91
2023/01/06 09:36:43;;;;;;;0.00;0.00;;;9.70;99.90;;;;;;4958764;28;20082;-91
2023/01/06 09:39:09;;;;;;;0.00;0.00;;;9.60;99.90;;;;;;4958566;28;20105;-91
2023/01/06 09:41:52;;;;;;;0.00;0.00;;;9.80;99.90;;;;;;4957844;28;20050;-91
2023/01/06 09:44:30;;;;;;;0.08;0.00;;;9.70;99.90;;;;;;4957707;28;20105;-91
2023/01/06 09:46:58;;;;;;;0.00;0.00;;;9.70;99.90;;;;;;4957913;28;20042;-91
2023/01/06 09:49:33;;;;;;;0.10;0.10;;;9.80;99.90;;;;;;4941645;28;20046;-91
2023/01/06 09:52:05;;;;;;;0.10;0.10;;;9.70;99.90;;;;;;4973994;28;20097;-91
2023/01/06 09:54:44;;;;;;;0.00;0.00;;;9.60;99.90;;;;;;4956482;28;20527;-91
2023/01/06 09:57:19;;;;;;;0.00;0.00;;;9.60;99.90;;;;;;4973753;28;20047;-91
2023/01/06 09:59:54;;;;;;;0.00;0.00;;;9.60;99.90;;;;;;4957699;28;20057;-91
2023/01/06 10:02:37;;;;;;;0.98;0.10;;;9.40;99.90;;;;;;4957181;28;20054;-91
2023/01/06 10:05:49;;;;;;;;;;;;;;;;;;;;;
2023/01/06 10:08:51;;;;;;;0.00;0.00;;;10.20;99.90;;;;;;4955173;28;20501;-91
2023/01/06 10:11:35;;;;;;;0.20;0.17;;;10.20;99.90;;;;;;4960851;28;20089;-91
2023/01/06 10:14:20;;;;;;;0.00;0.00;;;10.40;99.90;;;;;;4957236;28;20497;-91
2023/01/06 10:17:07;;;;;;;0.00;0.00;;;10.40;99.90;;;;;;4957426;28;20105;-91
2023/01/06 10:20:10;;;;;;;0.10;0.00;;;10.70;99.90;;;;;;4957131;28;20081;-91
2023/01/06 10:23:01;;;;;;;0.28;0.08;;;10.80;99.90;;;;;;4956734;28;20089;-91
2023/01/06 10:25:42;;;;;;;0.00;0.00;;;11.10;99.90;;;;;;4956571;28;20117;-91
2023/01/06 10:28:21;;;;;;;0.00;0.00;;;11.10;99.90;;;;;;4941616;28;20086;-94
2023/01/06 10:30:51;;;;;;;0.00;0.00;;;11.00;99.90;;;;;;4956480;28;20059;-91
2023/01/06 10:33:37;;;;;;;1.60;0.10;;;11.10;99.90;;;;;;4956980;28;20381;-91
2023/01/06 10:36:11;;;;;;;0.00;0.00;;;11.20;99.90;;;;;;4957200;28;20047;-91
2023/01/06 10:38:42;;;;;;;0.00;0.00;;;11.20;99.90;;;;;;4957315;28;20125;-92
2023/01/06 10:41:32;;;;;;;0.00;0.00;;;11.40;99.90;;;;;;4957279;28;20047;-91
2023/01/06 10:44:03;;;;;;;0.00;0.00;;;11.50;99.90;;;;;;4957202;28;20050;-93
2023/01/06 10:46:35;;;;;;;0.00;0.00;;;11.70;99.90;;;;;;4941566;28;20576;-91
2023/01/06 10:49:13;;;;;;;0.00;0.00;;;11.80;99.90;;;;;;4957312;28;20485;-91
2023/01/06 10:51:50;;;;;;;0.00;0.00;;;11.80;99.90;;;;;;4957897;28;20378;-91
2023/01/06 10:54:38;;;;;;;;;;;11.70;99.90;;;;;;4957526;28;20133;-92
2023/01/06 10:57:16;;;;;;;0.00;0.00;;;11.60;99.90;;;;;;4941733;28;20013;-92
2023/01/06 11:00:17;;;;;;;;;;;;;;;;;;;;;
2023/01/06 11:03:19;;;;;;;;;;;;;;;;;;;;;
2023/01/06 11:05:43;;;;;;;0.00;0.00;;;11.70;99.90;;;;;;4983015;28;20055;-92
2023/01/06 11:08:16;;;;;;;0.00;0.00;;;11.70;99.90;;;;;;4963771;28;20050;-92
2023/01/06 11:10:53;;;;;;;0.05;0.00;;;11.60;99.90;;;;;;4960811;28;20046;-92
2023/01/06 11:13:40;;;;;;;0.17;0.00;;;11.50;99.90;;;;;;4960432;28;20055;-92
2023/01/06 11:16:17;;;;;;;0.00;0.00;;;10.90;99.90;;;;;;4960925;28;20050;-92
2023/01/06 11:18:49;;;;;;;0.00;0.00;;;11.40;99.90;;;;;;4960770;28;20051;-92
2023/01/06 11:21:15;;;;;;;0.00;0.00;;;11.50;99.90;;;;;;4960181;28;20043;-92
2023/01/06 11:24:05;;;;;;;0.10;0.10;;;10.80;99.90;;;;;;4960387;28;20053;-92
2023/01/06 11:26:45;;;;;;;0.10;0.10;;;11.60;99.90;;;;;;4959753;28;20043;-92
2023/01/06 11:29:36;;;;;;;0.00;0.00;;;11.90;99.90;;;;;;4960885;28;20396;-92
2023/01/06 11:32:37;;;;;;;0.25;0.10;;;12.00;99.90;;;;;;4960945;28;20465;-92
2023/01/06 11:35:07;;;;;;;0.40;0.03;;;12.10;99.90;;;;;;4946169;28;20054;-92
2023/01/06 11:37:44;;;;;;;0.00;0.00;;;11.50;99.90;;;;;;4960560;28;20047;-92
2023/01/06 11:40:28;;;;;;;0.10;0.10;;;11.90;99.90;;;;;;4944543;28;20046;-92
2023/01/06 11:43:00;;;;;;;1.45;0.00;;;11.90;99.90;;;;;;4960923;28;20042;-92
2023/01/06 11:45:34;;;;;;;0.35;0.20;;;11.90;99.90;;;;;;4960575;28;20059;-92
2023/01/06 11:48:04;;;;;;;0.00;0.00;;;11.00;99.90;;;;;;4960869;28;20055;-92
2023/01/06 11:50:32;;;;;;;0.00;0.00;;;11.90;99.90;;;;;;4960203;28;20082;-92
2023/01/06 11:53:16;;;;;;;0.20;0.00;;;11.00;99.90;;;;;;4960589;28;20073;-92
2023/01/06 11:55:58;;;;;;;0.08;0.00;;;11.80;99.90;;;;;;4960777;28;20046;-92
2023/01/06 11:58:38;;;;;;;0.00;0.00;;;11.10;99.90;;;;;;4959837;28;20039;-92
2023/01/06 12:01:26;;;;;;;0.00;0.00;;;11.80;99.90;;;;;;4960355;28;20053;-92
2023/01/06 12:03:58;;;;;;;0.10;0.10;;;11.80;99.90;;;;;;4960072;28;20520;-92
2023/01/06 12:06:51;;;;;;;0.00;0.00;;;11.70;99.90;;;;;;4960266;28;20073;-93
2023/01/06 12:09:23;;;;;;;0.10;0.10;;;11.60;99.90;;;;;;4960526;28;20109;-92
2023/01/06 12:12:11;;;;;;;0.10;0.00;;;11.50;99.90;;;;;;4960523;28;20055;-92
2023/01/06 12:14:45;;;;;;;0.00;0.00;;;11.60;99.90;;;;;;4945422;28;20065;-93
2023/01/06 12:17:30;;;;;;;0.00;0.00;;;11.60;99.90;;;;;;4975297;28;20409;-92
2023/01/06 12:20:05;;;;;;;0.00;0.00;;;11.50;99.90;;;;;;4960084;28;20038;-93
2023/01/06 12:22:57;;;;;;;0.00;0.00;;;11.40;99.90;;;;;;4960577;28;20290;-92
2023/01/06 12:33:59;;;;;;;0.00;0.00;;;11.00;99.90;;;;;;4979381;28;20054;-93
2023/01/06 12:36:46;;;;;;;0.03;0.00;;;11.00;99.90;;;;;;4963093;28;20054;-94
2023/01/06 13:11:02;;;;;;;0.08;0.00;;;10.40;99.90;;;;;;4921431;29;20051;-93
2023/01/06 13:14:10;;;;;;;0.00;0.00;;;10.30;99.90;;;;;;4906629;28;20047;-93
2023/01/06 13:24:55;;;;;;;0.00;0.00;;;10.00;99.90;;;;;;4879983;29;20564;-92
2023/01/06 13:42:07;;;;;;;0.00;0.00;;;9.70;99.90;;;;;;4862445;29;20519;-93
2023/01/06 13:55:51;;;;;;;0.00;0.00;;;8.50;99.90;;;;;;4888359;28;20046;-93
2023/01/06 13:59:22;;;;;;;0.10;0.10;;;8.50;99.90;;;;;;4957580;28;20560;-93
2023/01/06 14:06:10;;;;;;;0.20;0.10;;;9.20;99.90;;;;;;4975422;28;20447;-93
2023/01/06 14:12:52;;;;;;;;;;;9.20;99.90;;;;;;4975683;28;20062;-93
2023/01/06 14:19:21;;;;;;;0.00;0.00;;;9.10;99.90;;;;;;4975280;28;20500;-93
2023/01/06 14:34:14;;;;;;;0.30;0.10;;;9.10;99.90;;;;;;4901271;29;20099;-93
2023/01/06 14:51:49;;;;;;;0.00;0.00;;;8.90;99.90;;;;;;4919471;29;20090;-93
2023/01/06 15:05:44;;;;;;;0.00;0.00;;;8.70;99.90;;;;;;4902265;29;20060;-93
2023/01/06 15:12:21;;;;;;;0.00;0.00;;;8.60;99.90;;;;;;4941515;28;20143;-93
2023/01/06 15:15:38;;;;;;;0.00;0.00;;;8.20;99.90;;;;;;4945152;28;20517;-93
2023/01/06 15:35:08;;;;;;;0.00;0.00;;;7.20;99.90;;;;;;4881126;29;20069;-93
2023/01/06 15:46:07;;;;;;;0.00;0.00;;;8.80;99.90;;;;;;4880949;29;20041;-92
2023/01/06 15:48:35;;;;;;;0.00;0.00;;;8.00;99.90;;;;;;4918090;28;20539;-92
2023/01/06 15:51:12;;;;;;;0.00;0.00;;;7.90;99.90;;;;;;4942545;28;20046;-92
2023/01/06 15:53:38;;;;;;;0.38;0.08;;;7.90;99.90;;;;;;4943555;28;20520;-92
2023/01/06 15:56:09;;;;;;;0.22;0.20;;;7.90;99.90;;;;;;4943278;28;20073;-92
2023/01/06 15:58:37;;;;;;;0.40;0.40;;;7.90;99.90;;;;;;4944054;28;20137;-91
2023/01/06 16:01:18;;;;;;;0.40;0.10;;;7.80;99.90;;;;;;4943332;28;20050;-92
2023/01/06 16:03:48;;;;;;;0.00;0.00;;;7.70;99.90;;;;;;4943360;28;20133;-91
2023/01/06 16:06:24;;;;;;;0.00;0.00;;;7.80;99.90;;;;;;4943409;28;20053;-92
2023/01/06 16:09:13;;;;;;;0.10;0.00;;;8.00;99.90;;;;;;4942984;28;20057;-92
2023/01/06 16:11:59;;;;;;;0.00;0.00;;;7.70;99.90;;;;;;4943528;28;20085;-92
2023/01/06 16:14:34;;;;;;;0.00;0.00;;;7.60;99.90;;;;;;4943379;28;20135;-91
2023/01/06 16:17:13;;;;;;;0.10;0.10;;;7.60;99.90;;;;;;4943325;28;20066;-91
2023/01/06 16:19:58;;;;;;;0.10;0.10;;;6.60;99.90;;;;;;4943351;28;20046;-92
2023/01/06 16:22:36;;;;;;;0.20;0.03;;;7.70;99.90;;;;;;4943648;28;20497;-91